createdAt,value
2019-03-09T00:00:01.395Z,12.42
2019-03-09T00:02:30.481Z,12.42
2019-03-09T00:04:59.568Z,12.41
2019-03-09T00:07:28.983Z,12.39
2019-03-09T00:09:58.200Z,12.46
2019-03-09T00:12:27.340Z,12.46
2019-03-09T00:14:56.713Z,12.43
2019-03-09T00:17:25.854Z,12.42
2019-03-09T00:19:56.903Z,12.48
2019-03-09T00:22:25.961Z,12.52
2019-03-09T00:25:03.080Z,12.59
2019-03-09T00:27:46.330Z,12.56
2019-03-09T00:30:23.419Z,12.59
2019-03-09T00:32:52.493Z,12.52
2019-03-09T00:35:21.608Z,12.60
2019-03-09T00:37:50.702Z,12.62
2019-03-09T00:40:20.106Z,12.61
2019-03-09T00:42:49.181Z,12.69
2019-03-09T00:45:18.270Z,12.71
2019-03-09T00:47:47.444Z,12.67
2019-03-09T00:50:16.487Z,12.69
2019-03-09T00:52:45.555Z,12.68
2019-03-09T00:55:14.713Z,12.67
2019-03-09T00:57:43.805Z,12.62
2019-03-09T01:00:19.954Z,12.61
2019-03-09T01:02:51.057Z,12.55
2019-03-09T01:05:19.958Z,12.49
2019-03-09T01:07:49.270Z,12.43
2019-03-09T01:10:18.350Z,12.37
2019-03-09T01:12:47.388Z,12.34
2019-03-09T01:15:16.678Z,12.34
2019-03-09T01:17:46.329Z,12.25
2019-03-09T01:20:16.473Z,12.21
2019-03-09T01:22:45.546Z,12.10
2019-03-09T01:25:14.703Z,12.05
2019-03-09T01:27:43.899Z,12.04
2019-03-09T01:30:15.830Z,11.98
2019-03-09T01:32:44.881Z,11.98
2019-03-09T01:35:14.583Z,11.95
2019-03-09T01:37:43.698Z,11.96
2019-03-09T01:40:12.805Z,11.92
2019-03-09T01:42:41.926Z,11.89
2019-03-09T01:53:10.604Z,11.74
2019-03-09T01:55:39.724Z,11.72
2019-03-09T01:58:08.851Z,11.75
2019-03-09T02:00:37.976Z,11.74
2019-03-09T02:03:07.101Z,11.75
2019-03-09T02:05:36.277Z,11.73
2019-03-09T02:08:05.494Z,11.71
2019-03-09T02:10:34.650Z,11.66
2019-03-09T02:13:03.806Z,11.61
2019-03-09T02:15:33.032Z,11.63
2019-03-09T02:18:02.222Z,11.63
2019-03-09T02:20:31.307Z,11.68
2019-03-09T02:23:00.473Z,11.62
2019-03-09T02:25:29.568Z,11.68
2019-03-09T02:27:58.708Z,11.67
2019-03-09T02:30:27.899Z,11.69
2019-03-09T02:32:56.980Z,11.65
2019-03-09T02:35:26.118Z,11.70
2019-03-09T02:37:57.028Z,11.67
2019-03-09T02:40:26.696Z,11.69
2019-03-09T02:42:55.838Z,11.66
2019-03-09T02:45:25.504Z,11.63
2019-03-09T02:47:54.734Z,11.65
2019-03-09T02:50:23.916Z,11.71
2019-03-09T02:52:53.066Z,11.72
2019-03-09T02:55:22.188Z,11.72
2019-03-09T02:57:51.396Z,10.49
2019-03-09T03:00:20.677Z,11.72
2019-03-09T03:02:56.256Z,11.71
2019-03-09T03:05:25.391Z,11.72
2019-03-09T03:07:54.545Z,11.74
2019-03-09T03:10:23.663Z,11.74
2019-03-09T03:12:52.989Z,11.74
2019-03-09T03:15:32.586Z,11.72
2019-03-09T03:18:01.799Z,11.70
2019-03-09T03:20:31.021Z,11.71
2019-03-09T03:23:00.401Z,9.33
2019-03-09T03:25:29.582Z,11.78
2019-03-09T03:27:58.865Z,11.79
2019-03-09T03:30:28.132Z,11.84
2019-03-09T03:32:57.877Z,11.86
2019-03-09T03:35:27.155Z,11.85
2019-03-09T03:37:56.270Z,11.90
2019-03-09T03:40:25.489Z,11.88
2019-03-09T03:42:54.615Z,11.91
2019-03-09T03:45:23.800Z,11.92
2019-03-09T03:47:52.982Z,11.96
2019-03-09T03:50:22.254Z,12.00
2019-03-09T03:52:51.412Z,12.03
2019-03-09T03:55:20.539Z,12.05
2019-03-09T03:57:49.678Z,12.06
2019-03-09T04:00:18.854Z,12.08
2019-03-09T04:02:48.094Z,12.09
2019-03-09T04:05:17.323Z,12.14
2019-03-09T04:07:46.472Z,12.16
2019-03-09T04:10:15.603Z,12.17
2019-03-09T04:12:44.752Z,12.17
2019-03-09T04:15:14.172Z,12.18
2019-03-09T04:17:43.767Z,12.20
2019-03-09T04:20:12.945Z,12.27
2019-03-09T04:22:42.071Z,12.31
2019-03-09T04:25:11.288Z,12.33
2019-03-09T04:27:40.770Z,12.33
2019-03-09T04:30:09.976Z,12.38
2019-03-09T04:32:39.151Z,12.42
2019-03-09T04:35:08.237Z,12.41
2019-03-09T04:37:37.396Z,12.44
2019-03-09T04:40:06.670Z,12.43
2019-03-09T04:42:35.792Z,12.47
2019-03-09T04:45:05.463Z,12.49
2019-03-09T04:47:34.657Z,12.49
2019-03-09T04:50:03.987Z,12.50
2019-03-09T04:52:33.192Z,12.52
2019-03-09T04:55:02.414Z,12.52
2019-03-09T04:57:31.686Z,12.56
2019-03-09T05:00:00.900Z,12.61
2019-03-09T05:02:29.957Z,12.61
2019-03-09T05:04:59.048Z,12.64
2019-03-09T05:07:40.168Z,12.68
2019-03-09T05:14:30.515Z,12.70
2019-03-09T05:17:01.836Z,12.69
2019-03-09T05:19:35.175Z,12.76
2019-03-09T05:22:21.128Z,12.77
2019-03-09T05:25:09.396Z,12.82
2019-03-09T05:27:47.420Z,12.85
2019-03-09T05:30:48.954Z,12.89
2019-03-09T05:33:27.898Z,12.94
2019-03-09T05:39:31.354Z,12.97
2019-03-09T05:42:09.793Z,12.97
2019-03-09T05:44:57.090Z,13.02
2019-03-09T05:48:08.314Z,12.98
2019-03-09T05:50:40.617Z,13.02
2019-03-09T05:53:19.957Z,13.07
2019-03-09T05:55:50.451Z,13.08
2019-03-09T05:58:20.246Z,13.05
2019-03-09T06:00:51.810Z,13.07
2019-03-09T06:03:22.061Z,13.10
2019-03-09T06:06:08.584Z,13.12
2019-03-09T06:08:38.717Z,13.13
2019-03-09T06:11:30.846Z,13.14
2019-03-09T06:14:01.128Z,13.16
2019-03-09T06:16:41.577Z,13.14
2019-03-09T06:19:17.116Z,13.14
2019-03-09T06:21:47.177Z,13.19
2019-03-09T06:24:16.985Z,13.21
2019-03-09T06:26:47.286Z,13.24
2019-03-09T06:29:20.200Z,13.24
2019-03-09T06:32:29.358Z,13.27
2019-03-09T06:35:45.355Z,13.30
2019-03-09T06:38:42.049Z,13.24
2019-03-09T06:41:27.941Z,13.31
2019-03-09T06:44:23.524Z,13.41
2019-03-09T06:47:36.122Z,13.49
2019-03-09T06:50:05.561Z,13.56
2019-03-09T07:03:38.036Z,13.80
2019-03-09T07:06:18.250Z,13.76
2019-03-09T07:08:51.237Z,13.80
2019-03-09T07:11:39.575Z,13.84
2019-03-09T07:14:55.399Z,13.80
2019-03-09T07:21:37.529Z,13.86
2019-03-09T07:25:05.168Z,13.94
2019-03-09T07:27:33.325Z,13.97
2019-03-09T07:38:31.796Z,13.98
2019-03-09T07:41:03.758Z,14.00
2019-03-09T07:43:49.434Z,14.02
2019-03-09T07:46:19.524Z,14.06
2019-03-09T07:48:49.049Z,14.08
2019-03-09T07:51:18.391Z,14.10
2019-03-09T07:53:47.508Z,14.11
2019-03-09T07:56:16.895Z,14.11
2019-03-09T07:58:45.981Z,14.11
2019-03-09T08:01:15.167Z,14.13
2019-03-09T08:03:44.456Z,14.14
2019-03-09T08:06:13.634Z,14.20
2019-03-09T08:08:42.744Z,14.21
2019-03-09T08:11:11.903Z,14.24
2019-03-09T08:13:40.992Z,14.28
2019-03-09T08:16:10.257Z,14.33
2019-03-09T08:18:39.408Z,14.37
2019-03-09T08:21:08.507Z,14.42
2019-03-09T08:23:37.886Z,14.39
2019-03-09T08:26:07.124Z,14.47
2019-03-09T08:28:37.019Z,14.53
2019-03-09T08:31:06.128Z,14.59
2019-03-09T08:33:35.274Z,14.59
2019-03-09T08:36:04.486Z,14.57
2019-03-09T08:38:33.644Z,14.57
2019-03-09T08:41:02.762Z,14.55
2019-03-09T08:43:31.836Z,14.57
2019-03-09T08:46:00.877Z,14.51
2019-03-09T08:48:30.038Z,14.53
2019-03-09T08:50:59.295Z,14.48
2019-03-09T08:53:28.458Z,14.53
2019-03-09T08:55:57.519Z,14.51
2019-03-09T08:58:26.723Z,14.54
2019-03-09T09:00:55.859Z,14.54
2019-03-09T09:03:24.922Z,14.48
2019-03-09T09:05:54.071Z,14.54
2019-03-09T09:08:23.131Z,14.54
2019-03-09T09:10:52.310Z,14.56
2019-03-09T09:13:21.498Z,14.61
2019-03-09T09:15:50.593Z,14.68
2019-03-09T09:18:20.537Z,14.76
2019-03-09T09:20:49.608Z,14.79
2019-03-09T09:23:18.704Z,14.80
2019-03-09T09:25:47.766Z,14.86
2019-03-09T09:28:16.851Z,14.89
2019-03-09T09:30:45.985Z,14.96
2019-03-09T09:33:15.282Z,15.00
2019-03-09T09:35:44.343Z,14.98
2019-03-09T09:38:13.443Z,14.99
2019-03-09T09:40:45.334Z,15.00
2019-03-09T09:43:14.405Z,15.04
2019-03-09T09:45:43.533Z,15.08
2019-03-09T09:48:12.683Z,15.19
2019-03-09T09:50:41.870Z,15.26
2019-03-09T09:53:11.001Z,15.45
2019-03-09T09:55:42.727Z,15.58
2019-03-09T09:58:11.767Z,15.71
2019-03-09T10:00:40.919Z,15.81
2019-03-09T10:03:10.016Z,15.91
2019-03-09T10:05:39.043Z,15.98
2019-03-09T10:08:08.184Z,15.88
2019-03-09T10:10:37.263Z,15.88
2019-03-09T10:13:06.438Z,15.90
2019-03-09T10:15:35.584Z,15.89
2019-03-09T10:18:04.623Z,15.88
2019-03-09T10:20:33.679Z,15.85
2019-03-09T10:23:04.810Z,15.87
2019-03-09T10:25:33.563Z,15.99
2019-03-09T10:28:02.911Z,16.12
2019-03-09T10:30:32.295Z,16.23
2019-03-09T10:33:01.423Z,16.30
2019-03-09T10:35:30.469Z,16.27
2019-03-09T10:37:59.712Z,16.29
2019-03-09T10:40:28.804Z,16.29
2019-03-09T10:42:57.862Z,16.27
2019-03-09T10:45:27.118Z,16.35
2019-03-09T10:47:56.253Z,16.31
2019-03-09T10:50:26.101Z,16.44
2019-03-09T10:52:55.270Z,16.56
2019-03-09T10:55:24.442Z,16.45
2019-03-09T10:57:53.554Z,16.45
2019-03-09T11:00:27.588Z,16.46
2019-03-09T11:02:56.724Z,16.45
2019-03-09T11:05:26.036Z,16.52
2019-03-09T11:07:55.196Z,16.61
2019-03-09T11:10:24.477Z,16.71
2019-03-09T11:12:53.529Z,16.80
2019-03-09T11:15:22.711Z,16.97
2019-03-09T11:17:51.847Z,17.04
2019-03-09T11:20:20.966Z,17.10
2019-03-09T11:22:50.027Z,17.18
2019-03-09T11:25:19.091Z,17.21
2019-03-09T11:27:48.272Z,17.16
2019-03-09T11:30:19.550Z,17.20
2019-03-09T11:32:48.618Z,17.12
2019-03-09T11:35:17.870Z,17.05
2019-03-09T11:37:46.899Z,17.07
2019-03-09T11:40:16.153Z,17.02
2019-03-09T11:42:45.174Z,16.92
2019-03-09T11:45:14.360Z,16.79
2019-03-09T11:47:43.367Z,16.73
2019-03-09T11:50:12.445Z,16.63
2019-03-09T11:52:41.551Z,16.34
2019-03-09T11:55:11.005Z,16.54
2019-03-09T11:57:40.042Z,16.60
2019-03-09T12:00:10.266Z,16.86
2019-03-09T12:02:39.468Z,16.98
2019-03-09T12:05:09.263Z,17.00
2019-03-09T12:07:38.334Z,17.03
2019-03-09T12:10:07.847Z,17.14
2019-03-09T12:12:36.941Z,17.55
2019-03-09T12:15:06.287Z,17.95
2019-03-09T12:17:35.343Z,18.01
2019-03-09T12:20:04.735Z,18.08
2019-03-09T12:22:33.803Z,19.40
2019-03-09T12:25:02.989Z,20.00
2019-03-09T12:27:32.109Z,19.90
2019-03-09T12:30:03.771Z,19.67
2019-03-09T12:32:32.092Z,19.29
2019-03-09T12:35:01.140Z,18.99
2019-03-09T12:37:30.355Z,18.65
2019-03-09T12:39:59.376Z,18.41
2019-03-09T12:42:28.602Z,18.23
2019-03-09T12:44:57.697Z,18.02
2019-03-09T12:47:27.044Z,17.96
2019-03-09T12:49:56.238Z,17.88
2019-03-09T12:52:25.295Z,17.80
2019-03-09T12:54:54.392Z,17.94
2019-03-09T12:57:23.486Z,17.96
2019-03-09T12:59:52.539Z,18.02
2019-03-09T13:02:21.642Z,17.87
2019-03-09T13:04:50.767Z,17.66
2019-03-09T13:07:19.812Z,17.55
2019-03-09T13:09:48.849Z,17.49
2019-03-09T13:12:17.955Z,17.47
2019-03-09T13:14:47.075Z,17.38
2019-03-09T13:17:16.155Z,17.29
2019-03-09T13:19:45.302Z,17.08
2019-03-09T13:22:14.458Z,16.98
2019-03-09T13:24:43.692Z,16.86
2019-03-09T13:27:12.871Z,16.83
2019-03-09T13:29:41.960Z,16.88
2019-03-09T13:32:11.148Z,16.95
2019-03-09T13:34:40.256Z,16.99
2019-03-09T13:37:09.393Z,17.10
2019-03-09T13:39:38.414Z,17.15
2019-03-09T13:42:07.685Z,17.19
2019-03-09T13:44:36.800Z,17.18
2019-03-09T13:47:05.862Z,17.18
2019-03-09T13:49:37.388Z,17.19
2019-03-09T13:52:06.521Z,17.05
2019-03-09T13:54:35.624Z,16.90
2019-03-09T13:57:04.987Z,16.67
2019-03-09T13:59:34.044Z,16.46
2019-03-09T14:02:03.118Z,16.35
2019-03-09T14:04:32.302Z,16.24
2019-03-09T14:07:01.407Z,16.13
2019-03-09T14:09:30.520Z,16.11
2019-03-09T14:11:59.748Z,15.92
2019-03-09T14:14:29.034Z,15.88
2019-03-09T14:16:58.128Z,15.84
2019-03-09T14:19:27.287Z,15.69
2019-03-09T14:21:56.373Z,15.07
2019-03-09T14:24:25.472Z,15.60
2019-03-09T14:26:54.563Z,15.58
2019-03-09T14:29:23.767Z,15.61
2019-03-09T14:31:52.862Z,15.61
2019-03-09T14:34:22.126Z,15.58
2019-03-09T14:36:51.286Z,15.54
2019-03-09T14:39:20.404Z,15.50
2019-03-09T14:41:49.487Z,15.54
2019-03-09T14:44:18.756Z,15.62
2019-03-09T14:46:47.916Z,15.68
2019-03-09T14:49:17.181Z,15.71
2019-03-09T14:51:46.272Z,15.73
2019-03-09T14:54:15.422Z,15.76
2019-03-09T14:56:44.485Z,15.79
2019-03-09T14:59:13.583Z,15.76
2019-03-09T15:01:42.707Z,15.75
2019-03-09T15:04:11.838Z,15.77
2019-03-09T15:06:40.912Z,15.84
2019-03-09T15:09:10.045Z,15.88
2019-03-09T15:11:39.142Z,15.90
2019-03-09T15:14:08.212Z,15.91
2019-03-09T15:16:37.451Z,15.84
2019-03-09T15:19:06.527Z,15.77
2019-03-09T15:21:35.539Z,15.72
2019-03-09T15:24:04.725Z,15.65
2019-03-09T15:26:33.770Z,15.62
2019-03-09T15:29:03.023Z,15.60
2019-03-09T15:31:32.273Z,15.65
2019-03-09T15:34:01.377Z,15.67
2019-03-09T15:36:30.669Z,15.67
2019-03-09T15:38:59.695Z,15.73
2019-03-09T15:41:28.828Z,15.80
2019-03-09T15:43:58.093Z,15.81
2019-03-09T15:46:27.164Z,15.75
2019-03-09T15:48:56.307Z,15.79
2019-03-09T15:51:25.492Z,15.77
2019-03-09T15:53:54.522Z,15.76
2019-03-09T15:56:23.676Z,15.72
2019-03-09T15:58:52.748Z,15.68
2019-03-09T16:01:21.950Z,15.61
2019-03-09T16:03:54.103Z,15.49
2019-03-09T16:06:23.269Z,15.24
2019-03-09T16:08:52.330Z,14.66
2019-03-09T16:11:21.594Z,14.16
2019-03-09T16:13:50.762Z,13.79
2019-03-09T16:16:19.839Z,13.43
2019-03-09T16:18:48.936Z,13.22
2019-03-09T16:21:17.999Z,13.06
2019-03-09T16:23:47.146Z,13.01
2019-03-09T16:26:16.246Z,12.88
2019-03-09T17:16:47.822Z,11.98
2019-03-09T17:19:17.067Z,11.99
2019-03-09T17:21:46.396Z,11.98
2019-03-09T17:24:15.676Z,12.00
2019-03-09T17:26:44.831Z,12.00
2019-03-09T17:29:14.069Z,11.99
2019-03-09T17:31:43.409Z,12.01
2019-03-09T17:34:12.712Z,12.01
2019-03-09T17:36:41.883Z,11.94
2019-03-09T17:39:11.618Z,11.96
2019-03-09T17:41:40.784Z,11.97
2019-03-09T17:44:10.071Z,11.98
2019-03-09T17:46:39.134Z,12.02
2019-03-09T17:49:08.230Z,12.03
2019-03-09T17:51:37.338Z,12.04
2019-03-09T17:54:06.463Z,12.06
2019-03-09T17:56:35.614Z,12.06
2019-03-09T17:59:04.790Z,12.07
2019-03-09T18:01:33.887Z,12.08
2019-03-09T18:04:03.041Z,12.08
2019-03-09T18:06:32.202Z,12.14
2019-03-09T18:09:01.345Z,12.16
2019-03-09T18:11:30.426Z,12.17
2019-03-09T18:14:07.029Z,12.16
2019-03-09T18:16:30.512Z,12.19
2019-03-09T18:18:59.581Z,12.17
2019-03-09T18:21:28.703Z,12.20
2019-03-09T18:23:57.789Z,12.24
2019-03-09T18:26:26.843Z,12.24
2019-03-09T18:28:57.109Z,12.34
2019-03-09T18:31:26.193Z,12.38
2019-03-09T18:33:55.351Z,12.39
2019-03-09T18:36:24.521Z,12.42
2019-03-09T18:38:53.664Z,12.42
2019-03-09T18:41:22.924Z,12.48
2019-03-09T18:43:52.031Z,12.49
2019-03-09T18:46:21.156Z,12.53
2019-03-09T18:48:50.265Z,12.57
2019-03-09T18:51:19.396Z,12.62
2019-03-09T18:53:48.584Z,12.67
2019-03-09T18:56:17.730Z,12.69
2019-03-09T18:58:46.959Z,12.73
2019-03-09T19:01:16.145Z,12.74
2019-03-09T19:03:45.306Z,12.77
2019-03-09T19:06:14.417Z,12.77
2019-03-09T19:08:43.544Z,12.77
2019-03-09T19:11:12.635Z,12.77
2019-03-09T19:13:41.746Z,12.79
2019-03-09T19:16:10.898Z,12.78
2019-03-09T19:18:40.070Z,12.74
2019-03-09T19:21:09.221Z,12.72
2019-03-09T19:23:38.423Z,12.69
2019-03-09T19:26:07.557Z,12.66
2019-03-09T19:28:36.620Z,12.64
2019-03-09T19:31:05.784Z,12.62
2019-03-09T19:33:34.818Z,12.62
2019-03-09T19:36:03.970Z,12.62
2019-03-09T19:38:33.197Z,12.63
2019-03-09T19:41:02.323Z,12.66
2019-03-09T19:43:31.592Z,12.71
2019-03-09T19:46:00.715Z,12.74
2019-03-09T19:48:30.018Z,12.76
2019-03-09T19:50:59.086Z,12.76
2019-03-09T19:53:28.210Z,12.80
2019-03-09T19:55:57.374Z,12.78
2019-03-09T19:58:26.521Z,12.78
2019-03-09T20:00:55.673Z,12.76
2019-03-09T20:03:24.873Z,12.76
2019-03-09T20:05:53.992Z,12.76
2019-03-09T20:08:23.369Z,12.74
2019-03-09T20:10:52.563Z,12.74
2019-03-09T20:13:21.823Z,12.72
2019-03-09T20:15:51.084Z,12.73
2019-03-09T20:18:20.335Z,12.73
2019-03-09T20:20:49.656Z,12.74
2019-03-09T20:23:18.853Z,12.73
2019-03-09T20:25:48.100Z,12.69
2019-03-09T20:28:17.302Z,12.64
2019-03-09T20:30:46.734Z,12.62
2019-03-09T20:33:15.997Z,12.57
2019-03-09T20:35:45.133Z,12.55
2019-03-09T20:38:14.361Z,12.54
2019-03-09T20:40:43.483Z,12.54
2019-03-09T20:43:12.631Z,12.51
2019-03-09T20:45:41.784Z,12.50
2019-03-09T20:48:10.921Z,12.50
2019-03-09T20:50:40.138Z,12.50
2019-03-09T20:53:09.302Z,12.45
2019-03-09T20:55:38.453Z,12.45
2019-03-09T20:58:07.520Z,12.43
2019-03-09T21:00:36.658Z,12.43
2019-03-09T21:03:05.905Z,12.40
2019-03-09T21:05:36.886Z,12.38
2019-03-09T21:08:06.233Z,12.36
2019-03-09T21:10:35.464Z,12.35
2019-03-09T21:13:06.307Z,12.35
2019-03-09T21:15:35.477Z,12.35
2019-03-09T21:18:04.827Z,12.34
2019-03-09T21:20:34.152Z,12.34
2019-03-09T21:23:03.497Z,12.35
2019-03-09T21:25:32.663Z,12.33
2019-03-09T21:28:01.895Z,12.34
2019-03-09T21:30:31.069Z,12.35
2019-03-09T21:33:00.193Z,12.34
2019-03-09T21:35:29.419Z,12.33
2019-03-09T21:37:58.575Z,12.34
2019-03-09T21:40:28.582Z,12.35
2019-03-09T21:42:57.770Z,12.40
2019-03-09T21:45:26.892Z,12.43
2019-03-09T21:47:56.150Z,12.44
2019-03-09T21:50:25.541Z,12.44
2019-03-09T21:52:54.683Z,12.47
2019-03-09T21:55:23.865Z,12.49
2019-03-09T21:57:53.107Z,12.52
2019-03-09T22:00:22.438Z,12.54
2019-03-09T22:02:51.679Z,12.57
2019-03-09T22:05:20.921Z,12.57
2019-03-09T22:07:50.234Z,12.58
2019-03-09T22:10:19.534Z,12.57
2019-03-09T22:12:48.768Z,12.58
2019-03-09T22:15:18.884Z,12.58
2019-03-09T22:17:48.237Z,12.58
2019-03-09T22:20:17.361Z,12.57
2019-03-09T22:22:46.526Z,12.55
2019-03-09T22:25:15.682Z,12.55
2019-03-09T22:27:44.882Z,12.55
2019-03-09T22:30:14.300Z,12.55
2019-03-09T22:32:43.524Z,12.55
2019-03-09T22:35:12.944Z,12.59
2019-03-09T22:37:42.086Z,12.55
2019-03-09T22:40:11.521Z,12.56
2019-03-09T22:42:40.645Z,12.56
2019-03-09T22:45:10.511Z,12.60
2019-03-09T22:47:39.675Z,12.60
2019-03-09T22:50:10.746Z,12.61
2019-03-09T22:52:40.076Z,12.62
2019-03-09T22:55:10.802Z,12.62
2019-03-09T22:57:40.021Z,12.66
2019-03-09T23:00:11.293Z,12.68
2019-03-09T23:02:40.549Z,12.68
2019-03-09T23:05:10.788Z,12.69
2019-03-09T23:07:39.935Z,12.73
2019-03-09T23:10:11.021Z,12.75
2019-03-09T23:12:40.124Z,12.76
2019-03-09T23:15:10.599Z,12.71
2019-03-09T23:17:39.837Z,12.74
2019-03-09T23:20:10.557Z,12.77
2019-03-09T23:22:39.568Z,12.81
2019-03-09T23:25:09.440Z,12.82
2019-03-09T23:27:38.509Z,12.86
2019-03-09T23:30:09.845Z,12.85
2019-03-09T23:32:38.877Z,12.85
2019-03-09T23:35:08.086Z,12.84
2019-03-09T23:37:37.229Z,12.82
2019-03-09T23:40:06.692Z,12.77
2019-03-09T23:42:35.731Z,12.78
2019-03-09T23:45:04.983Z,12.75
2019-03-09T23:47:34.068Z,12.76
2019-03-09T23:50:03.246Z,12.77
2019-03-09T23:52:32.280Z,12.76
2019-03-09T23:55:01.505Z,12.80
2019-03-09T23:57:30.848Z,12.77
